KSOW/SOW METAR and TAF weather

Enter ICAO airport designator
Station Type Date Time Source
KSOW METAR 2020/09/22 07:55 UTC NOAA

KSOW 220755Z AUTO 22005KT 10SM CLR 15/01 A3030 RMK AO2


Station Type Date Time Source
KSOW Decoded METAR 2020/09/22 07:55 UTC NOAA

Show Low, Show Low Regional Airport, AZ, United States (KSOW) 34-15-55N 110-00-20W
Sep 22, 2020 - 03:55 AM EDT / 2020.09.22 0755 UTC
Wind: from the SW (220 degrees) at 6 MPH (5 KT):0
Visibility: 10 mile(s):0
Sky conditions: clear
Temperature: 59 F (15 C)
Dew Point: 33 F (1 C)
Relative Humidity: 38%
Pressure (altimeter): 30.3 in. Hg (1026 hPa)
ob: KSOW 220755Z AUTO 22005KT 10SM CLR 15/01 A3030 RMK AO2
cycle: 8

Station Type Date Time Source
KSOW TAF UTC NOAA

Error!

Example: see airport list